createdAt,value
2022-12-25T00:00:15.169Z,97902.44
2022-12-25T00:02:19.868Z,97910.50
2022-12-25T00:04:21.176Z,97918.25
2022-12-25T00:06:22.511Z,97917.41
2022-12-25T00:08:23.810Z,97913.69
2022-12-25T00:10:25.138Z,97908.44
2022-12-25T00:12:26.479Z,97908.69
2022-12-25T00:14:27.782Z,97909.19
2022-12-25T00:16:29.354Z,97911.59
2022-12-25T00:18:31.091Z,97916.56
2022-12-25T00:20:32.386Z,97914.72
2022-12-25T00:22:33.712Z,97907.00
2022-12-25T00:24:35.036Z,97904.22
2022-12-25T00:26:36.327Z,97911.81
2022-12-25T00:28:37.672Z,97908.34
2022-12-25T00:30:41.038Z,97899.75
2022-12-25T00:32:45.371Z,97907.34
2022-12-25T00:34:46.684Z,97912.38
2022-12-25T00:36:48.015Z,97909.75
2022-12-25T00:38:49.341Z,97912.31
2022-12-25T00:40:50.680Z,97919.97
2022-12-25T00:42:52.022Z,97926.75
2022-12-25T00:44:53.332Z,97931.84
2022-12-25T00:46:54.636Z,97921.69
2022-12-25T00:48:55.959Z,97933.63
2022-12-25T00:50:57.293Z,97926.00
2022-12-25T00:52:58.585Z,97927.72
2022-12-25T00:54:59.889Z,97931.13
2022-12-25T00:57:01.200Z,97931.22
2022-12-25T00:59:02.544Z,97932.13
2022-12-25T01:01:04.000Z,97925.44
2022-12-25T01:03:05.718Z,97923.81
2022-12-25T01:05:07.123Z,97923.91
2022-12-25T01:07:08.463Z,97914.69
2022-12-25T01:09:28.602Z,97921.63
2022-12-25T01:11:29.937Z,97920.06
2022-12-25T01:13:31.305Z,97919.31
2022-12-25T01:15:32.613Z,97923.66
2022-12-25T01:17:33.962Z,97917.84
2022-12-25T01:19:35.282Z,97922.19
2022-12-25T01:21:36.616Z,97918.91
2022-12-25T01:23:37.973Z,97930.03
2022-12-25T01:25:39.263Z,97933.56
2022-12-25T01:27:40.573Z,97937.81
2022-12-25T01:29:41.925Z,97937.84
2022-12-25T01:31:43.262Z,97926.81
2022-12-25T01:33:44.634Z,97932.84
2022-12-25T01:35:46.044Z,97922.66
2022-12-25T01:37:47.346Z,97930.31
2022-12-25T01:39:48.674Z,97922.63
2022-12-25T01:41:49.992Z,97934.53
2022-12-25T01:43:51.328Z,97927.66
2022-12-25T01:45:52.801Z,97925.06
2022-12-25T01:47:54.188Z,97916.53
2022-12-25T01:49:55.501Z,97925.78
2022-12-25T01:51:57.096Z,97922.31
2022-12-25T01:53:58.448Z,97922.19
2022-12-25T01:55:59.748Z,97928.91
2022-12-25T01:58:01.076Z,97933.09
2022-12-25T02:00:02.379Z,97943.97
2022-12-25T02:02:09.469Z,97946.41
2022-12-25T02:04:10.806Z,97946.28
2022-12-25T02:06:12.123Z,97939.44
2022-12-25T02:08:13.418Z,97949.59
2022-12-25T02:10:14.746Z,97948.69
2022-12-25T02:12:16.085Z,97937.53
2022-12-25T02:14:17.375Z,97933.22
2022-12-25T02:16:19.969Z,97937.47
2022-12-25T02:18:21.377Z,97938.31
2022-12-25T02:20:22.676Z,97945.19
2022-12-25T02:22:24.031Z,97945.19
2022-12-25T02:24:25.323Z,97941.94
2022-12-25T02:26:26.628Z,97945.34
2022-12-25T02:28:27.932Z,97948.03
2022-12-25T02:30:29.229Z,97946.41
2022-12-25T02:32:30.584Z,97949.03
2022-12-25T02:34:31.885Z,97954.19
2022-12-25T02:36:33.188Z,97956.81
2022-12-25T02:38:34.488Z,97953.50
2022-12-25T02:40:35.832Z,97953.53
2022-12-25T02:42:55.928Z,97956.22
2022-12-25T02:45:15.784Z,97956.34
2022-12-25T02:47:35.879Z,97950.41
2022-12-25T02:49:55.782Z,97963.28
2022-12-25T02:52:15.551Z,97961.66
2022-12-25T02:54:35.615Z,97955.84
2022-12-25T02:56:55.647Z,97955.69
2022-12-25T02:59:15.511Z,97949.63
2022-12-25T03:01:35.489Z,97942.00
2022-12-25T03:03:55.547Z,97953.06
2022-12-25T03:06:15.491Z,97956.34
2022-12-25T03:08:16.841Z,97956.38
2022-12-25T03:10:36.627Z,97955.59
2022-12-25T03:12:37.920Z,97954.53
2022-12-25T03:14:57.808Z,97960.75
2022-12-25T03:16:59.239Z,97961.84
2022-12-25T03:19:00.630Z,97967.63
2022-12-25T03:21:20.812Z,97960.63
2022-12-25T03:23:40.708Z,97968.88
2022-12-25T03:26:00.504Z,97962.78
2022-12-25T03:28:01.791Z,97960.88
2022-12-25T03:30:21.676Z,97965.00
2022-12-25T03:32:22.982Z,97967.41
2022-12-25T03:34:43.014Z,97969.09
2022-12-25T03:36:47.235Z,97964.72
2022-12-25T03:38:51.505Z,97957.84
2022-12-25T03:41:11.553Z,97957.00
2022-12-25T03:43:18.765Z,97956.19
2022-12-25T03:45:38.892Z,97957.03
2022-12-25T03:47:49.130Z,97955.44
2022-12-25T03:50:09.293Z,97954.69
2022-12-25T03:52:29.399Z,97953.03
2022-12-25T03:54:49.360Z,97961.59
2022-12-25T03:57:09.262Z,97959.97
2022-12-25T03:59:29.122Z,97957.59
2022-12-25T04:01:49.165Z,97964.50
2022-12-25T04:04:09.379Z,97966.25
2022-12-25T04:06:29.346Z,97974.00
2022-12-25T04:08:49.263Z,97974.97
2022-12-25T04:11:09.185Z,97978.44
2022-12-25T04:13:29.000Z,97985.44
2022-12-25T04:15:48.971Z,97994.88
2022-12-25T04:18:09.158Z,97995.00
2022-12-25T04:20:29.085Z,97988.22
2022-12-25T04:22:48.952Z,97996.78
2022-12-25T04:25:09.017Z,97996.81
2022-12-25T04:27:28.690Z,98005.34
2022-12-25T04:29:48.463Z,98007.00
2022-12-25T04:32:08.450Z,98007.81
2022-12-25T04:34:28.247Z,98006.94
2022-12-25T04:36:29.572Z,98012.84
2022-12-25T04:38:30.901Z,98016.22
2022-12-25T04:40:32.201Z,98023.75
2022-12-25T04:42:33.547Z,98015.97
2022-12-25T04:44:34.838Z,98004.72
2022-12-25T04:46:36.204Z,98011.34
2022-12-25T04:48:37.601Z,98003.34
2022-12-25T04:50:38.924Z,98006.63
2022-12-25T04:52:40.242Z,98009.88
2022-12-25T04:54:41.607Z,98011.44
2022-12-25T04:56:45.763Z,98013.94
2022-12-25T04:58:47.439Z,98012.22
2022-12-25T05:00:48.768Z,98006.22
2022-12-25T05:02:50.280Z,98000.22
2022-12-25T05:04:51.783Z,98007.06
2022-12-25T05:06:53.075Z,98003.53
2022-12-25T05:08:54.371Z,97999.47
2022-12-25T05:10:55.728Z,98003.91
2022-12-25T05:12:57.061Z,98013.34
2022-12-25T05:14:58.374Z,98019.53
2022-12-25T05:16:59.671Z,98023.03
2022-12-25T05:19:01.005Z,98023.19
2022-12-25T05:21:02.340Z,98017.31
2022-12-25T05:23:03.679Z,98023.38
2022-12-25T05:25:05.023Z,98027.59
2022-12-25T05:27:06.396Z,98020.88
2022-12-25T05:29:07.728Z,98034.56
2022-12-25T05:31:09.079Z,98020.22
2022-12-25T05:33:10.990Z,98022.00
2022-12-25T05:35:12.356Z,98016.16
2022-12-25T05:37:13.647Z,98016.28
2022-12-25T05:39:14.953Z,98018.00
2022-12-25T05:41:16.286Z,98017.22
2022-12-25T05:43:19.368Z,98009.63
2022-12-25T05:45:20.725Z,98018.22
2022-12-25T05:47:22.016Z,98029.31
2022-12-25T05:49:23.364Z,98030.13
2022-12-25T05:51:26.131Z,98031.81
2022-12-25T05:53:27.484Z,98028.41
2022-12-25T05:55:28.817Z,98030.06
2022-12-25T05:57:30.176Z,98031.69
2022-12-25T05:59:31.488Z,98025.66
2022-12-25T06:01:32.906Z,98040.78
2022-12-25T06:03:34.386Z,98043.97
2022-12-25T06:05:35.726Z,98043.72
2022-12-25T06:07:37.050Z,98048.66
2022-12-25T06:09:38.378Z,98045.09
2022-12-25T06:11:39.665Z,98043.19
2022-12-25T06:13:41.018Z,98043.97
2022-12-25T06:15:42.478Z,98041.22
2022-12-25T06:17:43.836Z,98030.13
2022-12-25T06:19:45.307Z,98035.97
2022-12-25T06:21:46.644Z,98039.31
2022-12-25T06:23:48.049Z,98032.50
2022-12-25T06:25:49.415Z,98047.91
2022-12-25T06:27:50.697Z,98045.34
2022-12-25T06:29:52.031Z,98047.97
2022-12-25T06:31:57.276Z,98056.50
2022-12-25T06:33:58.782Z,98040.44
2022-12-25T06:36:00.119Z,98038.00
2022-12-25T06:38:01.916Z,98050.00
2022-12-25T06:40:03.239Z,98048.38
2022-12-25T06:42:04.583Z,98040.69
2022-12-25T06:44:05.892Z,98044.16
2022-12-25T06:46:07.393Z,98036.63
2022-12-25T06:48:08.751Z,98035.06
2022-12-25T06:50:10.119Z,98026.75
2022-12-25T06:52:11.417Z,98026.06
2022-12-25T06:54:12.744Z,98019.44
2022-12-25T06:56:15.673Z,98014.47
2022-12-25T06:58:17.027Z,98019.69
2022-12-25T07:00:18.319Z,98018.94
2022-12-25T07:02:19.889Z,98031.81
2022-12-25T07:04:21.284Z,98029.38
2022-12-25T07:06:22.621Z,98029.44
2022-12-25T07:08:23.962Z,98026.09
2022-12-25T07:10:25.318Z,98030.41
2022-12-25T07:12:27.502Z,98031.25
2022-12-25T07:14:28.839Z,98028.63
2022-12-25T07:16:30.210Z,98031.13
2022-12-25T07:18:31.629Z,98039.53
2022-12-25T07:20:32.927Z,98039.34
2022-12-25T07:22:34.244Z,98042.69
2022-12-25T07:24:38.373Z,98056.91
2022-12-25T07:26:39.681Z,98052.47
2022-12-25T07:28:41.259Z,98052.28
2022-12-25T07:30:42.566Z,98046.25
2022-12-25T07:32:49.865Z,98046.19
2022-12-25T07:34:51.611Z,98053.72
2022-12-25T07:36:52.902Z,98043.38
2022-12-25T07:38:54.257Z,98045.03
2022-12-25T07:40:56.558Z,98051.72
2022-12-25T07:42:57.847Z,98039.63
2022-12-25T07:44:59.167Z,98044.69
2022-12-25T07:47:00.461Z,98045.53
2022-12-25T07:49:01.772Z,98054.00
2022-12-25T07:51:03.127Z,98057.41
2022-12-25T07:53:04.437Z,98054.84
2022-12-25T07:55:05.735Z,98055.63
2022-12-25T07:57:07.044Z,98059.06
2022-12-25T07:59:08.344Z,98070.19
2022-12-25T08:01:09.816Z,98073.66
2022-12-25T08:03:11.556Z,98064.44
2022-12-25T08:05:13.050Z,98060.31
2022-12-25T08:07:14.437Z,98069.78
2022-12-25T08:09:15.763Z,98064.75
2022-12-25T08:11:17.112Z,98078.50
2022-12-25T08:13:18.424Z,98079.44
2022-12-25T08:15:22.467Z,98077.81
2022-12-25T08:17:23.768Z,98084.66
2022-12-25T08:19:25.156Z,98084.75
2022-12-25T08:21:26.461Z,98082.38
2022-12-25T08:23:27.758Z,98081.63
2022-12-25T08:25:29.126Z,98087.50
2022-12-25T08:27:30.542Z,98087.50
2022-12-25T08:29:32.915Z,98098.59
2022-12-25T08:31:37.229Z,98090.44
2022-12-25T08:33:41.614Z,98088.13
2022-12-25T08:35:42.966Z,98101.09
2022-12-25T08:37:44.374Z,98090.19
2022-12-25T08:39:46.610Z,98089.44
2022-12-25T08:41:47.909Z,98083.56
2022-12-25T08:43:49.211Z,98078.50
2022-12-25T08:45:50.550Z,98070.00
2022-12-25T08:47:51.850Z,98069.09
2022-12-25T08:49:53.159Z,98084.25
2022-12-25T08:51:54.617Z,98069.56
2022-12-25T08:53:55.936Z,98071.03
2022-12-25T08:55:57.260Z,98073.41
2022-12-25T08:58:04.671Z,98077.47
2022-12-25T09:00:05.984Z,98079.00
2022-12-25T09:02:07.401Z,98078.03
2022-12-25T09:04:11.522Z,98079.59
2022-12-25T09:06:12.878Z,98081.97
2022-12-25T09:08:14.175Z,98087.88
2022-12-25T09:10:15.466Z,98080.97
2022-12-25T09:12:16.803Z,98086.91
2022-12-25T09:14:18.099Z,98088.59
2022-12-25T09:16:20.287Z,98078.31
2022-12-25T09:18:21.719Z,98077.38
2022-12-25T09:20:23.013Z,98082.44
2022-12-25T09:22:24.439Z,98087.97
2022-12-25T09:24:25.745Z,98079.75
2022-12-25T09:26:27.264Z,98066.22
2022-12-25T09:28:28.634Z,98067.88
2022-12-25T09:30:32.676Z,98055.06
2022-12-25T09:32:34.049Z,98045.38
2022-12-25T09:34:35.385Z,98041.34
2022-12-25T09:36:36.687Z,98059.22
2022-12-25T09:38:38.119Z,98039.34
2022-12-25T09:40:40.428Z,98022.88
2022-12-25T09:42:41.768Z,98030.22
2022-12-25T09:44:43.102Z,98030.63
2022-12-25T09:46:44.455Z,98030.31
2022-12-25T09:48:45.878Z,98031.25
2022-12-25T09:50:47.183Z,98019.47
2022-12-25T09:52:48.687Z,98018.28
2022-12-25T09:54:53.021Z,98028.47
2022-12-25T09:56:54.311Z,98025.75
2022-12-25T09:58:55.615Z,98018.84
2022-12-25T10:00:56.960Z,98007.56
2022-12-25T10:02:58.900Z,98013.56
2022-12-25T10:05:00.483Z,98003.53
2022-12-25T10:07:01.778Z,98005.13
2022-12-25T10:09:03.123Z,98001.72
2022-12-25T10:11:04.430Z,97999.19
2022-12-25T10:13:05.763Z,98000.13
2022-12-25T10:15:07.117Z,97985.69
2022-12-25T10:17:08.447Z,97986.88
2022-12-25T10:19:10.196Z,97840.06
2022-12-25T10:21:13.311Z,97980.41
2022-12-25T10:23:15.474Z,97987.53
2022-12-25T10:25:17.142Z,97979.22
2022-12-25T10:27:18.538Z,97979.34
2022-12-25T10:29:20.026Z,97977.72
2022-12-25T10:31:21.466Z,97982.88
2022-12-25T10:33:22.830Z,97986.34
2022-12-25T10:35:24.262Z,97989.75
2022-12-25T10:37:25.568Z,97991.56
2022-12-25T10:39:26.911Z,97986.94
2022-12-25T10:41:31.138Z,97993.25
2022-12-25T10:43:32.430Z,97991.81
2022-12-25T10:45:33.771Z,97988.66
2022-12-25T10:47:37.281Z,97985.38
2022-12-25T10:49:38.597Z,97977.03
2022-12-25T10:51:39.946Z,97968.66
2022-12-25T10:53:41.251Z,97978.06
2022-12-25T10:55:42.575Z,97975.69
2022-12-25T10:57:43.909Z,97977.53
2022-12-25T10:59:45.213Z,97975.03
2022-12-25T11:01:49.927Z,97974.19
2022-12-25T11:03:53.755Z,97970.81
2022-12-25T11:05:55.349Z,97979.28
2022-12-25T11:07:57.016Z,97976.66
2022-12-25T11:10:04.813Z,97982.44
2022-12-25T11:12:07.192Z,97964.41
2022-12-25T11:14:08.534Z,97951.44
2022-12-25T11:16:10.625Z,97944.31
2022-12-25T11:18:12.065Z,97957.75
2022-12-25T11:20:13.360Z,97961.84
2022-12-25T11:22:14.654Z,97946.28
2022-12-25T11:24:15.975Z,97953.84
2022-12-25T11:26:17.286Z,97938.31
2022-12-25T11:28:18.582Z,97954.44
2022-12-25T11:30:19.922Z,97949.31
2022-12-25T11:32:21.222Z,97945.00
2022-12-25T11:34:22.564Z,97948.31
2022-12-25T11:36:23.925Z,97950.88
2022-12-25T11:38:25.215Z,97955.97
2022-12-25T11:40:26.544Z,97947.47
2022-12-25T11:42:28.611Z,97950.94
2022-12-25T11:44:30.330Z,97954.31
2022-12-25T11:46:31.699Z,97945.84
2022-12-25T11:48:33.032Z,97943.38
2022-12-25T11:50:34.380Z,97935.69
2022-12-25T11:52:36.292Z,97933.97
2022-12-25T11:54:37.820Z,97939.16
2022-12-25T11:56:39.248Z,97927.31
2022-12-25T11:58:40.656Z,97927.38
2022-12-25T12:00:41.978Z,97931.72
2022-12-25T12:02:43.557Z,97926.75
2022-12-25T12:04:45.559Z,97928.66
2022-12-25T12:06:46.915Z,97928.00
2022-12-25T12:08:48.248Z,97937.50
2022-12-25T12:10:49.551Z,97927.34
2022-12-25T12:12:53.778Z,97937.75
2022-12-25T12:14:55.139Z,97930.22
2022-12-25T12:16:56.541Z,97922.66
2022-12-25T12:18:57.887Z,97910.88
2022-12-25T12:21:02.264Z,97900.72
2022-12-25T12:23:03.580Z,97887.22
2022-12-25T12:25:04.896Z,97884.75
2022-12-25T12:27:06.235Z,97889.91
2022-12-25T12:29:07.533Z,97889.13
2022-12-25T12:31:08.871Z,97886.56
2022-12-25T12:33:10.176Z,97884.03
2022-12-25T12:35:11.472Z,97886.59
2022-12-25T12:37:12.780Z,97885.66
2022-12-25T12:39:17.046Z,97875.31
2022-12-25T12:41:18.382Z,97873.50
2022-12-25T12:43:19.688Z,97864.06
2022-12-25T12:45:20.990Z,97858.88
2022-12-25T12:47:22.291Z,97840.06
2022-12-25T12:49:23.674Z,97831.47
2022-12-25T12:51:24.974Z,97836.44
2022-12-25T12:53:26.289Z,97831.19
2022-12-25T12:55:27.627Z,97839.69
2022-12-25T12:57:33.219Z,97836.66
2022-12-25T12:59:34.583Z,97749.06
2022-12-25T13:01:36.040Z,97844.09
2022-12-25T13:03:37.482Z,97854.00
2022-12-25T13:05:47.634Z,97843.59
2022-12-25T13:07:48.955Z,97826.50
2022-12-25T13:09:50.267Z,97821.28
2022-12-25T13:11:51.602Z,97827.97
2022-12-25T13:13:52.901Z,97843.28
2022-12-25T13:15:56.082Z,97848.41
2022-12-25T13:17:57.384Z,97846.69
2022-12-25T13:19:58.727Z,97849.25
2022-12-25T13:22:00.395Z,97834.03
2022-12-25T13:24:01.801Z,97830.75
2022-12-25T13:26:03.236Z,97824.44
2022-12-25T13:28:04.911Z,97817.41
2022-12-25T13:30:06.256Z,97817.66
2022-12-25T13:32:07.640Z,97816.19
2022-12-25T13:34:09.044Z,97815.50
2022-12-25T13:36:11.143Z,97813.09
2022-12-25T13:38:12.491Z,97802.19
2022-12-25T13:40:13.788Z,97791.25
2022-12-25T13:42:15.144Z,97793.94
2022-12-25T13:44:16.495Z,97799.13
2022-12-25T13:46:20.963Z,97808.53
2022-12-25T13:48:23.259Z,97811.28
2022-12-25T13:50:24.620Z,97819.00
2022-12-25T13:52:26.119Z,97814.84
2022-12-25T13:54:30.378Z,97814.91
2022-12-25T13:56:31.707Z,97834.53
2022-12-25T13:58:33.063Z,97839.69
2022-12-25T14:00:34.372Z,97848.16
2022-12-25T14:02:35.990Z,97849.75
2022-12-25T14:04:37.420Z,97844.56
2022-12-25T14:06:38.761Z,97838.53
2022-12-25T14:08:40.200Z,97834.16
2022-12-25T14:10:41.769Z,97838.28
2022-12-25T14:12:43.813Z,97837.22
2022-12-25T14:14:45.112Z,97839.56
2022-12-25T14:16:48.743Z,97821.53
2022-12-25T14:18:50.187Z,97806.00
2022-12-25T14:20:51.531Z,97807.56
2022-12-25T14:22:53.261Z,97811.66
2022-12-25T14:24:54.596Z,97810.72
2022-12-25T14:26:55.882Z,97802.41
2022-12-25T14:28:57.183Z,97806.53
2022-12-25T14:30:58.588Z,97805.59
2022-12-25T14:33:00.015Z,97812.44
2022-12-25T14:35:03.546Z,97813.44
2022-12-25T14:37:05.214Z,97816.13
2022-12-25T14:39:06.641Z,97817.91
2022-12-25T14:41:07.939Z,97816.41
2022-12-25T14:43:09.282Z,97808.00
2022-12-25T14:45:10.590Z,97813.94
2022-12-25T14:47:11.962Z,97814.88
2022-12-25T14:49:13.307Z,97802.19
2022-12-25T14:51:14.612Z,97802.31
2022-12-25T14:53:15.919Z,97809.19
2022-12-25T14:55:17.240Z,97807.50
2022-12-25T14:57:18.555Z,97794.78
2022-12-25T14:59:19.916Z,97801.75
2022-12-25T15:01:24.064Z,97810.25
2022-12-25T15:03:25.531Z,97808.50
2022-12-25T15:05:26.972Z,97812.81
2022-12-25T15:07:28.516Z,97802.38
2022-12-25T15:09:30.615Z,97785.47
2022-12-25T15:11:31.919Z,97796.66
2022-12-25T15:13:34.282Z,97787.47
2022-12-25T15:15:38.624Z,97784.97
2022-12-25T15:17:39.961Z,97793.53
2022-12-25T15:19:41.320Z,97783.28
2022-12-25T15:21:44.460Z,97785.81
2022-12-25T15:23:45.776Z,97784.09
2022-12-25T15:25:47.569Z,97773.03
2022-12-25T15:27:48.951Z,97783.19
2022-12-25T15:32:11.600Z,97777.94
2022-12-25T15:34:12.897Z,97785.56
2022-12-25T15:36:14.339Z,97784.66
2022-12-25T15:38:15.863Z,97782.94
2022-12-25T15:40:17.210Z,97782.09
2022-12-25T15:42:21.706Z,97770.97
2022-12-25T15:44:23.147Z,97765.78
2022-12-25T15:46:24.627Z,97748.75
2022-12-25T15:48:26.002Z,97743.63
2022-12-25T15:50:27.388Z,97740.16
2022-12-25T15:52:28.699Z,97747.88
2022-12-25T15:54:30.075Z,97736.88
2022-12-25T15:56:34.391Z,97728.28
2022-12-25T15:58:35.871Z,97736.75
2022-12-25T16:00:37.167Z,97728.22
2022-12-25T16:02:38.726Z,97734.19
2022-12-25T16:04:42.480Z,97728.22
2022-12-25T16:06:43.817Z,97724.81
2022-12-25T16:08:45.116Z,97713.38
2022-12-25T16:10:46.444Z,97728.00
2022-12-25T16:12:50.655Z,97711.06
2022-12-25T16:14:51.966Z,97715.38
2022-12-25T16:16:55.990Z,97707.75
2022-12-25T16:18:57.701Z,97695.03
2022-12-25T16:20:59.046Z,97685.66
2022-12-25T16:23:00.400Z,97688.22
2022-12-25T16:25:01.734Z,97683.97
2022-12-25T16:27:03.028Z,97682.38
2022-12-25T16:29:07.240Z,97673.91
2022-12-25T16:31:09.029Z,97674.91
2022-12-25T16:33:13.931Z,97670.69
2022-12-25T16:35:15.351Z,97666.41
2022-12-25T16:37:16.700Z,97678.34
2022-12-25T16:39:18.005Z,97666.44
2022-12-25T16:41:19.428Z,97671.53
2022-12-25T16:43:24.111Z,97663.03
2022-12-25T16:45:25.809Z,97649.41
2022-12-25T16:47:27.131Z,97650.31
2022-12-25T16:49:28.458Z,97642.59
2022-12-25T16:51:29.857Z,97644.34
2022-12-25T16:53:31.191Z,97657.13
2022-12-25T16:55:33.616Z,97669.00
2022-12-25T16:57:35.032Z,97664.78
2022-12-25T16:59:36.435Z,97658.84
2022-12-25T17:01:38.399Z,97646.00
2022-12-25T17:03:39.980Z,97642.66
2022-12-25T17:05:41.551Z,97637.69
2022-12-25T17:07:45.023Z,97635.31
2022-12-25T17:09:49.121Z,97637.16
2022-12-25T17:11:50.559Z,97636.47
2022-12-25T17:13:51.977Z,97638.38
2022-12-25T17:15:53.582Z,97637.66
2022-12-25T17:17:54.941Z,97633.59
2022-12-25T17:19:56.268Z,97631.19
2022-12-25T17:21:59.717Z,97634.66
2022-12-25T17:24:03.673Z,97631.28
2022-12-25T17:26:05.438Z,97629.53
2022-12-25T17:28:06.771Z,97636.19
2022-12-25T17:30:08.064Z,97639.44
2022-12-25T17:32:09.470Z,97649.53
2022-12-25T17:34:10.819Z,97653.56
2022-12-25T17:36:12.144Z,97650.88
2022-12-25T17:38:13.478Z,97663.56
2022-12-25T17:40:15.421Z,97665.16
2022-12-25T17:42:16.735Z,97660.78
2022-12-25T17:44:18.136Z,97664.03
2022-12-25T17:46:19.561Z,97657.16
2022-12-25T17:48:20.879Z,97641.72
2022-12-25T17:50:22.295Z,97629.75
2022-12-25T17:52:23.634Z,97616.94
2022-12-25T17:54:24.972Z,97620.28
2022-12-25T17:56:26.373Z,97613.47
2022-12-25T17:58:27.724Z,97592.94
2022-12-25T18:00:29.135Z,97581.06
2022-12-25T18:02:30.931Z,97561.41
2022-12-25T18:04:32.406Z,97559.66
2022-12-25T18:06:33.703Z,97541.81
2022-12-25T18:08:39.277Z,97544.31
2022-12-25T18:10:41.199Z,97533.25
2022-12-25T18:12:42.501Z,97545.19
2022-12-25T18:14:43.856Z,97544.25
2022-12-25T18:16:45.263Z,97542.59
2022-12-25T18:18:51.754Z,97534.94
2022-12-25T18:20:53.938Z,97546.00
2022-12-25T18:22:55.307Z,97530.72
2022-12-25T18:24:56.605Z,97544.38
2022-12-25T18:26:57.975Z,97537.59
2022-12-25T18:28:59.296Z,97531.63
2022-12-25T18:31:00.608Z,97524.03
2022-12-25T18:33:01.963Z,97542.69
2022-12-25T18:35:03.328Z,97558.03
2022-12-25T18:37:04.752Z,97557.25
2022-12-25T18:39:06.054Z,97551.28
2022-12-25T18:41:07.429Z,97535.13
2022-12-25T18:43:11.550Z,97530.88
2022-12-25T18:45:12.892Z,97532.63
2022-12-25T18:47:17.111Z,97534.34
2022-12-25T18:49:18.451Z,97534.34
2022-12-25T18:51:19.785Z,97526.72
2022-12-25T18:53:21.136Z,97521.59
2022-12-25T18:55:22.427Z,97520.78
2022-12-25T18:57:23.718Z,97523.41
2022-12-25T18:59:25.050Z,97527.69
2022-12-25T19:01:26.481Z,97527.81
2022-12-25T19:03:29.426Z,97524.34
2022-12-25T19:05:30.743Z,97510.72
2022-12-25T19:07:32.093Z,97514.16
2022-12-25T19:09:33.518Z,97500.53
2022-12-25T19:11:37.772Z,97498.88
2022-12-25T19:13:44.911Z,97489.53
2022-12-25T19:15:49.050Z,97487.88
2022-12-25T19:17:50.368Z,97489.59
2022-12-25T19:19:51.677Z,97495.50
2022-12-25T19:21:53.018Z,97490.38
2022-12-25T19:23:54.320Z,97491.16
2022-12-25T19:25:56.788Z,97481.00
2022-12-25T19:27:59.279Z,97482.63
2022-12-25T19:30:00.696Z,97484.44
2022-12-25T19:32:02.131Z,97484.41
2022-12-25T19:34:03.482Z,97478.41
2022-12-25T19:36:04.800Z,97469.81
2022-12-25T19:38:06.116Z,97468.97
2022-12-25T19:40:07.600Z,97468.97
2022-12-25T19:42:08.915Z,97463.91
2022-12-25T19:44:10.221Z,97465.59
2022-12-25T19:46:11.643Z,97469.81
2022-12-25T19:48:18.994Z,97473.19
2022-12-25T19:50:20.295Z,97327.88
2022-12-25T19:52:21.588Z,97472.34
2022-12-25T19:54:23.020Z,97470.63
2022-12-25T19:56:24.339Z,97471.44
2022-12-25T19:58:25.722Z,97468.88
2022-12-25T20:00:27.409Z,97456.09
2022-12-25T20:02:28.943Z,97472.28
2022-12-25T20:04:30.493Z,97469.75
2022-12-25T20:06:31.937Z,97473.13
2022-12-25T20:08:33.264Z,97472.28
2022-12-25T20:10:34.570Z,97480.75
2022-12-25T20:12:35.874Z,97488.41
2022-12-25T20:14:37.206Z,97496.91
2022-12-25T20:16:38.746Z,97514.00
2022-12-25T20:18:40.125Z,97491.00
2022-12-25T20:20:41.449Z,97502.00
2022-12-25T20:22:45.838Z,97507.91
2022-12-25T20:24:49.077Z,97507.97
2022-12-25T20:26:55.266Z,97506.25
2022-12-25T20:29:00.107Z,97501.06
2022-12-25T20:31:01.439Z,97490.03
2022-12-25T20:33:02.860Z,97499.44
2022-12-25T20:35:04.156Z,97509.66
2022-12-25T20:37:08.260Z,97513.06
2022-12-25T20:39:10.147Z,97515.56
2022-12-25T20:41:28.729Z,97514.75
2022-12-25T20:43:30.613Z,97504.56
2022-12-25T20:45:31.994Z,97512.22
2022-12-25T20:47:33.380Z,97507.13
2022-12-25T20:49:34.804Z,97492.69
2022-12-25T20:51:36.233Z,97484.19
2022-12-25T20:53:37.651Z,97485.03
2022-12-25T20:55:38.986Z,97485.03
2022-12-25T20:57:40.310Z,97482.47
2022-12-25T20:59:41.646Z,97492.75
2022-12-25T21:01:43.070Z,97491.84
2022-12-25T21:03:44.567Z,97492.72
2022-12-25T21:05:52.014Z,97502.94
2022-12-25T21:07:56.238Z,97501.25
2022-12-25T21:09:57.819Z,97502.94
2022-12-25T21:11:59.392Z,97507.19
2022-12-25T21:14:00.691Z,97509.72
2022-12-25T21:16:02.036Z,97508.94
2022-12-25T21:18:06.364Z,97500.53
2022-12-25T21:20:07.696Z,97494.63
2022-12-25T21:22:08.989Z,97494.66
2022-12-25T21:24:10.283Z,97482.88
2022-12-25T21:26:12.267Z,97483.81
2022-12-25T21:28:13.637Z,97481.19
2022-12-25T21:30:16.057Z,97512.69
2022-12-25T21:32:36.420Z,97485.53
2022-12-25T21:34:37.748Z,97342.63
2022-12-25T21:36:41.225Z,97477.88
2022-12-25T21:38:42.579Z,97471.97
2022-12-25T21:40:43.884Z,97467.72
2022-12-25T21:42:45.232Z,97467.72
2022-12-25T21:44:46.610Z,97465.13
2022-12-25T21:46:48.035Z,97459.28
2022-12-25T21:48:49.493Z,97463.47
2022-12-25T21:51:09.472Z,97455.75
2022-12-25T21:53:10.810Z,97463.41
2022-12-25T21:55:12.142Z,97463.41
2022-12-25T21:57:13.525Z,97459.09
2022-12-25T21:59:14.870Z,97444.59
2022-12-25T22:01:16.851Z,97434.34
2022-12-25T22:03:18.448Z,97447.16
2022-12-25T22:05:38.693Z,97444.56
2022-12-25T22:07:39.997Z,97446.22
2022-12-25T22:09:41.294Z,97441.09
2022-12-25T22:12:01.184Z,97446.19
2022-12-25T22:14:51.805Z,97453.88
2022-12-25T22:17:01.516Z,97466.66
2022-12-25T22:19:21.460Z,97456.34
2022-12-25T22:21:22.755Z,97469.09
2022-12-25T22:23:26.802Z,97468.28
2022-12-25T22:25:28.165Z,97451.31
2022-12-25T22:27:29.468Z,97456.41
2022-12-25T22:29:30.784Z,97457.25
2022-12-25T22:31:32.490Z,97449.59
2022-12-25T22:33:33.826Z,97446.19
2022-12-25T22:35:35.127Z,97453.84
2022-12-25T22:37:36.485Z,97461.50
2022-12-25T22:39:37.782Z,97463.16
2022-12-25T22:41:39.119Z,97452.94
2022-12-25T22:44:15.380Z,97455.50
2022-12-25T22:46:01.759Z,97468.28
2022-12-25T22:48:03.121Z,97473.97
2022-12-25T22:50:04.383Z,97463.22
2022-12-25T22:52:07.643Z,97459.94
2022-12-25T22:54:08.950Z,97450.78
2022-12-25T22:56:10.347Z,97456.66
2022-12-25T22:58:11.801Z,97453.00
2022-12-25T23:00:13.083Z,97450.53
2022-12-25T23:02:17.344Z,97443.41
2022-12-25T23:04:18.806Z,97437.63
2022-12-25T23:06:20.142Z,97431.31
2022-12-25T23:08:21.438Z,97442.91
2022-12-25T23:10:22.756Z,97456.63
2022-12-25T23:12:42.425Z,97454.94
2022-12-25T23:14:43.783Z,97451.41
2022-12-25T23:16:45.262Z,97454.34
2022-12-25T23:19:04.886Z,97442.59
2022-12-25T23:21:24.765Z,97444.47
2022-12-25T23:23:44.754Z,97448.81
2022-12-25T23:26:04.836Z,97443.00
2022-12-25T23:28:06.134Z,97445.59
2022-12-25T23:30:07.455Z,97461.72
2022-12-25T23:32:08.788Z,97445.47
2022-12-25T23:34:10.113Z,97246.88
2022-12-25T23:36:11.564Z,97441.41
2022-12-25T23:38:12.899Z,97441.06
2022-12-25T23:40:14.204Z,97452.69
2022-12-25T23:42:15.503Z,97447.59
2022-12-25T23:44:16.832Z,97446.53
2022-12-25T23:46:18.176Z,97446.06
2022-12-25T23:48:19.478Z,97427.03
2022-12-25T23:50:20.771Z,97447.72
2022-12-25T23:52:22.112Z,97443.28
2022-12-25T23:54:23.457Z,97467.81
2022-12-25T23:56:24.756Z,97470.22
2022-12-25T23:58:26.098Z,97470.13
